Time;durP1;ratioP1;P1;durP2;ratioP2;P2;SDS_P1;SDS_P2;PMS_P1;PMS_P2;Temp;Humidity;BMP_temperature;BMP_pressure;BME280_temperature;BME280_humidity;BME280_pressure;Samples;Min_cycle;Max_cycle;Signal;HPM_P1;HPM_P2
2022/06/22 00:00:18;;;;;;;1.98;1.33;;;;;;;13.47;100.00;98487.50;4388801;32;20072;-71
2022/06/22 00:03:00;;;;;;;1.90;1.15;;;;;;;13.17;100.00;98448.72;4400546;32;20075;-72
2022/06/22 00:05:41;;;;;;;2.20;1.60;;;;;;;13.29;100.00;98478.94;4401542;32;20094;-71
2022/06/22 00:08:16;;;;;;;3.12;1.50;;;;;;;13.13;100.00;98450.38;4396943;32;20365;-72
2022/06/22 00:11:01;;;;;;;4.47;1.98;;;;;;;13.36;100.00;98478.66;4396318;32;20050;-72
2022/06/22 00:13:30;;;;;;;1.52;1.37;;;;;;;13.35;100.00;98494.03;4399618;32;20062;-72
2022/06/22 00:16:15;;;;;;;6.30;1.55;;;;;;;13.02;100.00;98458.56;4396957;32;20391;-71
2022/06/22 00:18:46;;;;;;;2.42;1.58;;;;;;;13.26;100.00;98501.13;4400135;32;20345;-71
2022/06/22 00:21:17;;;;;;;4.12;1.33;;;;;;;13.20;100.00;98496.81;4399461;32;20108;-71
2022/06/22 00:23:45;;;;;;;4.50;1.65;;;;;;;13.18;100.00;98496.28;4399141;32;20436;-72
2022/06/22 00:26:27;;;;;;;4.12;1.52;;;;;;;13.11;100.00;98493.09;4401202;32;20130;-71
2022/06/22 00:29:08;;;;;;;5.45;1.37;;;;;;;12.86;100.00;98448.91;4401044;32;20389;-71
2022/06/22 00:31:58;;;;;;;1.20;1.10;;;;;;;13.10;100.00;98500.41;4399679;32;20039;-71
2022/06/22 00:34:28;;;;;;;3.20;1.37;;;;;;;12.72;100.00;98454.91;4400350;32;20091;-71
2022/06/22 00:37:05;;;;;;;3.42;1.73;;;;;;;12.83;100.00;98498.91;4393481;32;20118;-70
2022/06/22 00:39:31;;;;;;;1.55;1.45;;;;;;;12.71;100.00;98517.31;4421724;32;20068;-71
2022/06/22 00:42:21;;;;;;;5.10;1.87;;;;;;;12.43;100.00;98472.84;4420802;32;20356;-71
2022/06/22 00:44:55;;;;;;;1.80;1.40;;;;;;;12.79;100.00;98510.53;4413458;32;20038;-71
2022/06/22 00:47:35;;;;;;;3.50;1.40;;;;;;;12.76;100.00;98506.50;4423462;32;20470;-71
2022/06/22 00:50:18;;;;;;;2.45;1.70;;;;;;;12.77;100.00;98494.63;4416405;32;20033;-71
2022/06/22 00:53:00;;;;;;;1.60;1.50;;;;;;;12.53;100.00;98454.72;4415813;32;20080;-71
2022/06/22 00:55:31;;;;;;;4.03;1.77;;;;;;;12.55;100.00;98438.25;4416364;32;20087;-71
2022/06/22 00:58:26;;;;;;;2.22;1.83;;;;;;;12.80;100.00;98477.06;4413085;32;20113;-71
2022/06/22 01:01:05;;;;;;;2.85;1.77;;;;;;;12.82;100.00;98482.97;4389481;32;20096;-71
2022/06/22 01:03:54;;;;;;;1.55;1.45;;;;;;;12.80;100.00;98482.47;4419445;32;20109;-74
2022/06/22 01:06:37;;;;;;;2.25;1.55;;;;;;;12.44;100.00;98447.50;4408165;32;20061;-72
2022/06/22 01:09:13;;;;;;;11.65;4.87;;;;;;;12.60;100.00;98472.53;4422742;32;20457;-72
2022/06/22 01:15:09;;;;;;;7.30;5.27;;;;;;;12.44;100.00;98469.09;4427697;32;20062;-70
2022/06/22 01:17:59;;;;;;;5.28;3.50;;;;;;;12.40;100.00;98465.31;4419169;32;20186;-70
2022/06/22 01:21:03;;;;;;;3.47;2.17;;;;;;;12.40;100.00;98468.00;4412659;32;20078;-72
2022/06/22 01:23:39;;;;;;;6.12;2.95;;;;;;;12.43;100.00;98472.84;4421626;32;20165;-71
2022/06/22 01:26:42;;;;;;;2.78;2.00;;;;;;;12.16;100.00;98442.44;4423397;32;20107;-72
2022/06/22 01:29:19;;;;;;;3.33;2.08;;;;;;;12.41;100.00;98481.22;4415246;32;20072;-72
2022/06/22 01:32:00;;;;;;;4.30;1.90;;;;;;;12.09;100.00;98435.72;4415733;32;20105;-72
2022/06/22 01:34:36;;;;;;;5.82;2.33;;;;;;;12.32;100.00;98486.41;4414421;32;20064;-72
2022/06/22 01:37:05;;;;;;;2.42;1.60;;;;;;;12.09;100.00;98451.91;4414083;32;20086;-71
2022/06/22 01:39:32;;;;;;;1.58;1.48;;;;;;;12.01;100.00;98455.16;4415983;32;20038;-71
2022/06/22 01:42:09;;;;;;;2.22;1.70;;;;;;;12.23;100.00;98512.34;4414342;32;20034;-71
2022/06/22 01:45:23;;;;;;;9.45;1.87;;;;;;;12.12;100.00;98511.53;4413891;32;20056;-72
2022/06/22 01:48:27;;;;;;;2.47;1.65;;;;;;;12.23;100.00;98523.13;4380081;32;20034;-72
2022/06/22 01:50:56;;;;;;;2.10;1.90;;;;;;;12.33;100.00;98512.31;4404426;32;20034;-72
2022/06/22 01:53:36;;;;;;;6.65;2.30;;;;;;;12.15;100.00;98467.81;4414074;32;20139;-71
2022/06/22 01:56:17;;;;;;;3.37;1.90;;;;;;;12.53;100.00;98505.25;4415431;32;20696;-71
2022/06/22 01:58:49;;;;;;;5.55;1.80;;;;;;;12.45;100.00;98486.91;4418086;32;20094;-72
2022/06/22 02:01:26;;;;;;;6.60;2.65;;;;;;;12.51;100.00;98499.31;4416244;32;20042;-71
2022/06/22 02:04:15;;;;;;;3.97;2.45;;;;;;;12.32;100.00;98462.09;4402172;32;20119;-71
2022/06/22 02:10:08;;;;;;;2.40;1.75;;;;;;;12.47;100.00;98500.94;4418558;32;20594;-73
2022/06/22 02:12:40;;;;;;;2.25;2.05;;;;;;;12.16;100.00;98471.34;4417517;32;20069;-71
2022/06/22 02:15:26;;;;;;;4.80;2.00;;;;;;;12.39;100.00;98532.00;4418010;32;20034;-71
2022/06/22 02:17:54;;;;;;;3.60;2.15;;;;;;;12.31;100.00;98536.06;4416304;32;20066;-72
2022/06/22 02:20:27;;;;;;;3.58;2.30;;;;;;;12.21;100.00;98551.50;4418822;32;20517;-72
2022/06/22 02:22:58;;;;;;;3.35;2.05;;;;;;;12.18;100.00;98552.84;4418530;32;20432;-72
2022/06/22 02:25:27;;;;;;;6.60;1.80;;;;;;;12.16;100.00;98549.59;4418751;32;20034;-72
2022/06/22 02:27:54;;;;;;;1.70;1.60;;;;;;;12.05;100.00;98553.41;4412416;32;20060;-72
2022/06/22 02:30:20;;;;;;;7.20;2.85;;;;;;;11.90;100.00;98530.72;4418497;32;20041;-72
2022/06/22 02:32:47;;;;;;;6.87;3.05;;;;;;;12.11;100.00;98553.13;4417871;32;20061;-71
2022/06/22 02:35:15;;;;;;;5.45;3.10;;;;;;;11.89;100.00;98507.50;4417730;32;20042;-72
2022/06/22 02:37:53;;;;;;;5.00;3.12;;;;;;;12.12;100.00;98548.50;4430432;32;20140;-73
2022/06/22 02:40:24;;;;;;;4.40;2.75;;;;;;;12.01;100.00;98499.13;4433711;32;20066;-73
2022/06/22 02:45:36;;;;;;;5.60;3.08;;;;;;;11.92;100.00;98507.00;4413849;32;20083;-72
2022/06/22 02:48:25;;;;;;;12.93;3.17;;;;;;;12.15;100.00;98542.56;4404399;32;20050;-72
2022/06/22 02:50:59;;;;;;;7.50;3.72;;;;;;;12.23;100.00;98539.31;4415331;32;20111;-72
2022/06/22 02:53:33;;;;;;;3.97;3.12;;;;;;;12.25;100.00;98537.16;4410666;32;20951;-72
2022/06/22 02:56:03;;;;;;;4.85;2.70;;;;;;;12.34;100.00;98535.53;4425274;32;20050;-72
2022/06/22 02:58:37;;;;;;;4.95;3.00;;;;;;;12.32;100.00;98545.78;4432482;32;20428;-72
2022/06/22 03:01:12;;;;;;;5.37;4.12;;;;;;;11.96;100.00;98502.66;4432829;32;20057;-72
2022/06/22 03:03:40;;;;;;;4.45;3.30;;;;;;;12.08;100.00;98504.28;4416006;32;20038;-73
2022/06/22 03:06:10;;;;;;;4.05;2.90;;;;;;;12.32;100.00;98540.41;4417918;32;20166;-73
2022/06/22 03:08:37;;;;;;;4.95;3.25;;;;;;;12.38;100.00;98545.78;4415121;32;20490;-73
2022/06/22 03:11:08;;;;;;;3.00;2.65;;;;;;;12.34;100.00;98546.31;4417180;32;20750;-71
2022/06/22 03:13:38;;;;;;;;;;;;;;;12.36;100.00;98548.75;4417316;32;20061;-72
2022/06/22 03:16:04;;;;;;;6.20;2.85;;;;;;;12.40;100.00;98544.44;4418110;32;19934;-72
2022/06/22 03:18:32;;;;;;;7.47;3.28;;;;;;;12.02;100.00;98489.19;4421168;32;20034;-71
2022/06/22 03:21:03;;;;;;;4.62;3.20;;;;;;;12.29;100.00;98532.84;4431521;32;20072;-72
2022/06/22 03:23:45;;;;;;;9.80;3.65;;;;;;;12.02;100.00;98494.56;4427719;32;20159;-72
2022/06/22 03:26:18;;;;;;;6.37;2.83;;;;;;;12.29;100.00;98540.94;4430563;32;20074;-72
2022/06/22 03:29:18;;;;;;;6.37;3.17;;;;;;;12.26;100.00;98549.56;4432561;32;20058;-72
2022/06/22 03:31:51;;;;;;;6.50;3.12;;;;;;;12.05;100.00;98548.00;4430466;32;20041;-72
2022/06/22 03:34:22;;;;;;;3.95;2.75;;;;;;;11.92;100.00;98528.56;4402209;32;20126;-71
2022/06/22 03:37:10;;;;;;;5.47;3.08;;;;;;;11.73;100.00;98498.59;4401988;32;20100;-72
2022/06/22 03:39:41;;;;;;;3.47;2.92;;;;;;;12.03;100.00;98552.84;4400296;32;20183;-71
2022/06/22 03:42:15;;;;;;;5.43;3.03;;;;;;;11.78;100.00;98505.88;4409213;32;20054;-71
2022/06/22 03:44:49;;;;;;;2.97;2.33;;;;;;;12.18;100.00;98547.44;4416454;32;20610;-71
2022/06/22 03:47:23;;;;;;;3.05;2.75;;;;;;;11.99;100.00;98507.50;4415642;32;20050;-72
2022/06/22 03:50:12;;;;;;;6.28;3.80;;;;;;;12.31;100.00;98544.16;4416011;32;20058;-71
2022/06/22 03:53:06;;;;;;;5.50;3.72;;;;;;;12.39;100.00;98542.81;4416591;32;20128;-72
2022/06/22 03:55:37;;;;;;;14.40;4.65;;;;;;;12.46;100.00;98545.22;4410626;32;20050;-72
2022/06/22 03:58:06;;;;;;;14.75;5.62;;;;;;;12.47;100.00;98541.44;4400996;32;20345;-71
2022/06/22 04:00:38;;;;;;;10.98;6.43;;;;;;;12.32;100.00;98505.31;4412919;32;20122;-73
2022/06/22 04:03:05;;;;;;;8.52;5.65;;;;;;;12.65;100.00;98530.06;4416660;32;20077;-72
2022/06/22 04:05:39;;;;;;;18.95;5.95;;;;;;;12.68;100.00;98528.69;4416311;32;20039;-72
2022/06/22 04:08:05;;;;;;;11.35;6.55;;;;;;;12.72;100.00;98527.84;4417121;32;20054;-73
2022/06/22 04:10:36;;;;;;;11.00;6.37;;;;;;;12.48;100.00;98497.16;4413377;32;20046;-73
2022/06/22 04:13:09;;;;;;;12.13;5.37;;;;;;;12.53;100.00;98483.66;4416128;32;20165;-73
2022/06/22 04:15:44;;;;;;;11.15;5.10;;;;;;;12.90;100.00;98539.13;4416121;32;20392;-73
2022/06/22 04:18:18;;;;;;;10.15;4.25;;;;;;;12.93;100.00;98541.28;4413435;32;20057;-74
2022/06/22 04:20:50;;;;;;;9.48;4.50;;;;;;;12.98;100.00;98543.97;4416145;32;20080;-73
2022/06/22 04:23:42;;;;;;;8.30;4.47;;;;;;;12.81;100.00;98517.31;4416233;32;20120;-73
2022/06/22 04:26:30;;;;;;;12.85;4.32;;;;;;;13.09;100.00;98552.84;4413659;32;20049;-73
2022/06/22 04:29:13;;;;;;;8.50;4.30;;;;;;;13.22;100.00;98559.53;4416178;32;20048;-73
2022/06/22 04:31:49;;;;;;;6.95;3.30;;;;;;;13.29;100.00;98560.03;4413949;32;20498;-73
2022/06/22 04:34:26;;;;;;;6.15;3.90;;;;;;;13.06;100.00;98527.16;4415550;32;20091;-73
2022/06/22 04:36:57;;;;;;;4.68;3.42;;;;;;;13.12;100.00;98537.97;4415320;32;20073;-73
2022/06/22 04:39:30;;;;;;;5.25;3.40;;;;;;;13.25;100.00;98531.94;4399109;32;20505;-74
2022/06/22 04:42:04;;;;;;;5.43;2.87;;;;;;;13.32;100.00;98554.06;4414365;32;20046;-73
2022/06/22 04:44:33;;;;;;;5.28;3.40;;;;;;;13.37;100.00;98567.59;4415761;32;20038;-73
2022/06/22 04:47:14;;;;;;;8.55;3.08;;;;;;;13.43;100.00;98562.94;4414691;32;20084;-74
2022/06/22 04:50:12;;;;;;;8.10;3.45;;;;;;;13.42;100.00;98567.56;4414094;32;20069;-73
2022/06/22 04:52:48;;;;;;;6.68;2.65;;;;;;;13.47;100.00;98579.44;4396583;32;20052;-73
2022/06/22 04:55:19;;;;;;;8.00;3.47;;;;;;;13.44;100.00;98561.88;4415771;32;20034;-73
2022/06/22 04:57:50;;;;;;;6.35;3.30;;;;;;;13.29;100.00;98524.91;4413215;32;20103;-73
2022/06/22 05:00:30;;;;;;;7.68;3.60;;;;;;;13.58;100.00;98573.69;4410754;32;20058;-72
2022/06/22 05:03:12;;;;;;;6.10;3.37;;;;;;;13.61;100.00;98564.22;4413049;32;20097;-73
2022/06/22 05:05:39;;;;;;;10.73;3.05;;;;;;;13.70;100.00;98559.78;4412957;32;20054;-74
2022/06/22 05:08:34;;;;;;;4.62;3.20;;;;;;;13.52;100.00;98520.72;4412027;32;20058;-74
2022/06/22 05:11:30;;;;;;;11.10;2.67;;;;;;;13.86;100.00;98557.78;4345007;32;20107;-74
2022/06/22 05:13:59;;;;;;;5.82;2.62;;;;;;;13.89;100.00;98548.28;4413682;32;20180;-74
2022/06/22 05:16:30;;;;;;;9.30;2.60;;;;;;;13.96;100.00;98556.88;4415938;32;20387;-73
2022/06/22 05:18:58;;;;;;;11.85;3.10;;;;;;;14.01;100.00;98575.00;4414404;32;20050;-74
2022/06/22 05:21:44;;;;;;;2.90;2.60;;;;;;;14.01;100.00;98570.41;4415354;32;20299;-76
2022/06/22 05:24:23;;;;;;;2.78;2.53;;;;;;;14.09;100.00;98572.50;4401149;32;20042;-73
2022/06/22 05:26:50;;;;;;;8.70;2.47;;;;;;;14.06;100.00;98556.81;4399048;32;20065;-73
2022/06/22 05:29:22;;;;;;;6.70;2.65;;;;;;;13.95;100.00;98544.47;4413885;32;20050;-73
2022/06/22 05:31:53;;;;;;;4.82;2.28;;;;;;;14.16;100.00;98586.50;4412768;32;20038;-74
2022/06/22 05:34:24;;;;;;;10.48;3.03;;;;;;;13.90;100.00;98541.81;4409998;32;20061;-74
2022/06/22 05:36:57;;;;;;;4.93;3.15;;;;;;;14.33;100.00;98579.88;4400955;32;20450;-74
2022/06/22 05:39:24;;;;;;;7.43;3.25;;;;;;;14.43;100.00;98578.97;4405435;32;20069;-74
2022/06/22 05:41:50;;;;;;;10.13;3.80;;;;;;;14.44;100.00;98573.25;4418593;32;20042;-74
2022/06/22 05:44:20;;;;;;;4.93;2.33;;;;;;;14.50;100.00;98574.81;4418208;32;20049;-74
2022/06/22 05:46:56;;;;;;;7.68;3.17;;;;;;;14.29;100.00;98539.00;4411176;32;20061;-74
2022/06/22 05:49:29;;;;;;;6.07;2.20;;;;;;;14.60;100.00;98582.06;4402181;32;20039;-74
2022/06/22 05:52:06;;;;;;;3.95;2.37;;;;;;;14.70;100.00;98575.72;4414667;32;20372;-74
2022/06/22 05:54:44;;;;;;;4.18;2.50;;;;;;;14.62;100.00;98566.31;4417896;32;20957;-74
2022/06/22 05:57:23;;;;;;;7.37;3.12;;;;;;;14.78;100.00;98593.25;4417408;32;20069;-73
2022/06/22 06:00:02;;;;;;;3.20;2.42;;;;;;;14.91;100.00;98591.75;4416155;32;20079;-73
2022/06/22 06:02:45;;;;;;;5.78;2.53;;;;;;;14.95;100.00;98587.34;4416249;32;20047;-72
2022/06/22 06:05:24;;;;;;;2.78;2.45;;;;;;;15.12;100.00;98603.97;4417858;32;20099;-73
2022/06/22 06:07:57;;;;;;;6.35;3.58;;;;;;;15.15;100.00;98589.03;4418202;32;20091;-74
2022/06/22 06:10:30;;;;;;;5.25;2.90;;;;;;;15.19;100.00;98585.44;4403818;32;20074;-74
2022/06/22 06:13:15;;;;;;;4.15;3.15;;;;;;;15.04;100.00;98555.81;4417139;32;20047;-73
2022/06/22 06:15:44;;;;;;;3.83;2.03;;;;;;;15.29;100.00;98589.13;4417102;32;20062;-71
2022/06/22 06:18:16;;;;;;;7.87;2.72;;;;;;;15.04;100.00;98559.31;4416459;32;20038;-72
2022/06/22 06:20:47;;;;;;;9.05;2.60;;;;;;;15.25;100.00;98565.31;4417795;32;20081;-72
2022/06/22 06:23:20;;;;;;;8.55;3.00;;;;;;;15.47;100.00;98585.63;4415290;32;20062;-72
2022/06/22 06:28:48;;;;;;;4.90;3.03;;;;;;;15.53;100.00;98581.72;4413943;32;20047;-72
2022/06/22 06:31:21;;;;;;;8.23;2.15;;;;;;;15.55;100.00;98584.16;4416544;32;20125;-73
2022/06/22 06:33:47;;;;;;;10.82;2.50;;;;;;;15.62;100.00;98585.41;4401810;32;20051;-73
2022/06/22 06:36:20;;;;;;;4.20;2.10;;;;;;;15.65;100.00;98588.63;4401183;32;20056;-74
2022/06/22 06:38:56;;;;;;;4.53;2.15;;;;;;;15.64;100.00;98603.31;4389295;32;20113;-72
2022/06/22 06:41:38;;;;;;;5.18;2.40;;;;;;;15.79;100.00;98595.78;4410999;32;20077;-72
2022/06/22 06:44:20;;;;;;;11.98;2.87;;;;;;;15.60;100.00;98565.91;4415909;32;20417;-73
2022/06/22 06:46:58;;;;;;;7.00;2.03;;;;;;;15.85;100.00;98572.06;4417715;32;20425;-72
2022/06/22 06:49:28;;;;;;;4.80;2.75;;;;;;;15.81;100.00;98554.75;4417542;32;20083;-74
2022/06/22 06:52:01;;;;;;;6.05;2.60;;;;;;;16.07;100.00;98595.09;4403018;32;20058;-74
2022/06/22 06:54:39;;;;;;;2.87;2.17;;;;;;;16.17;100.00;98586.75;4415364;32;20391;-73
2022/06/22 06:57:14;;;;;;;7.95;2.20;;;;;;;16.19;100.00;98598.13;4413672;32;20046;-73
2022/06/22 06:59:45;;;;;;;10.13;2.42;;;;;;;16.25;100.00;98599.66;4416101;32;20072;-72
2022/06/22 07:02:17;;;;;;;4.65;1.87;;;;;;;16.08;100.00;98555.94;4417601;32;20471;-71
2022/06/22 07:04:44;;;;;;;4.70;2.37;;;;;;;16.38;100.00;98589.91;4417519;32;20042;-72
2022/06/22 07:07:36;;;;;;;6.47;2.42;;;;;;;16.38;100.00;98600.78;4414904;32;20042;-73
2022/06/22 07:10:21;;;;;;;8.55;1.95;;;;;;;16.48;100.00;98595.19;4418115;32;20352;-73
2022/06/22 07:12:56;;;;;;;7.35;2.17;;;;;;;16.47;100.00;98592.78;4416343;32;20156;-70
2022/06/22 07:15:30;;;;;;;14.57;3.10;;;;;;;16.50;100.00;98584.03;4416754;32;20076;-71
2022/06/22 07:18:00;;;;;;;3.30;2.30;;;;;;;16.41;100.00;98561.34;4414990;32;20049;-72
2022/06/22 07:20:42;;;;;;;8.13;2.67;;;;;;;16.57;100.00;98580.91;4415793;32;20069;-72
2022/06/22 07:23:22;;;;;;;1.70;1.60;;;;;;;16.66;100.00;98596.22;4415997;32;20144;-70
2022/06/22 07:25:53;;;;;;;6.10;2.92;;;;;;;16.73;100.00;98586.88;4401502;32;20087;-71
2022/06/22 07:28:29;;;;;;;4.55;2.78;;;;;;;16.74;100.00;98588.47;4417138;32;20112;-71
2022/06/22 07:31:17;;;;;;;6.65;3.08;;;;;;;16.65;100.00;98589.16;4416878;32;20165;-71
2022/06/22 07:33:54;;;;;;;3.28;1.90;;;;;;;16.86;100.00;98577.94;4415966;32;20073;-71
2022/06/22 07:36:31;;;;;;;2.95;2.10;;;;;;;16.72;100.00;98545.28;4415601;32;20165;-70
2022/06/22 07:39:16;;;;;;;5.30;2.12;;;;;;;17.06;100.00;98591.13;4415525;32;20076;-73
2022/06/22 07:41:43;;;;;;;4.90;2.05;;;;;;;17.01;100.00;98580.34;4416984;32;20087;-71
2022/06/22 07:44:22;;;;;;;8.18;1.73;;;;;;;16.91;100.00;98585.97;4416255;32;20038;-72
2022/06/22 07:46:53;;;;;;;8.93;2.35;;;;;;;16.98;100.00;98591.84;4413494;32;20038;-74
2022/06/22 07:49:30;;;;;;;4.60;1.50;;;;;;;16.74;100.00;98547.69;4415992;32;20064;-72
2022/06/22 07:52:01;;;;;;;4.32;1.73;;;;;;;17.05;100.00;98586.78;4410202;32;20388;-70
2022/06/22 07:54:38;;;;;;;5.93;2.00;;;;;;;16.93;100.00;98545.72;4401286;32;20068;-73
2022/06/22 07:57:13;;;;;;;8.68;1.62;;;;;;;16.97;100.00;98535.81;4413603;32;20054;-70
2022/06/22 07:59:50;;;;;;;6.32;1.45;;;;;;;17.05;100.00;98572.38;4416502;32;20207;-72
2022/06/22 08:02:25;;;;;;;8.77;1.70;;;;;;;17.10;100.00;98585.88;4390156;32;20115;-74
2022/06/22 08:05:00;;;;;;;2.83;1.33;;;;;;;17.12;100.00;98547.50;4410900;32;20070;-71
2022/06/22 08:08:16;;;;;;;7.18;1.27;;;;;;;17.54;100.00;98581.66;4415394;32;20069;-71
2022/06/22 08:10:56;;;;;;;3.55;1.50;;;;;;;17.62;100.00;98593.75;4368108;32;20106;-72
2022/06/22 08:13:25;;;;;;;7.22;1.70;;;;;;;17.47;100.00;98558.69;4364563;32;20090;-71
2022/06/22 08:16:23;;;;;;;4.57;1.45;;;;;;;17.73;100.00;98589.69;4366886;32;20453;-71
2022/06/22 08:18:49;;;;;;;11.45;1.77;;;;;;;17.76;100.00;98582.81;4364496;32;20048;-71
2022/06/22 08:21:18;;;;;;;1.23;1.17;;;;;;;17.69;100.00;98594.12;4367749;32;20118;-70
2022/06/22 08:23:44;;;;;;;1.12;1.00;;;;;;;17.72;100.00;98565.50;4363903;32;20046;-73
2022/06/22 08:26:24;;;;;;;5.37;1.60;;;;;;;17.82;100.00;98559.78;4353640;32;20051;-71
2022/06/22 08:28:58;;;;;;;3.40;1.37;;;;;;;18.02;100.00;98558.53;4355542;32;20118;-71
2022/06/22 08:34:10;;;;;;;3.37;1.25;;;;;;;18.17;100.00;98598.19;4367120;32;20054;-72
2022/06/22 08:36:55;;;;;;;3.08;1.30;;;;;;;18.15;100.00;98584.88;4361793;32;20244;-71
2022/06/22 08:39:34;;;;;;;1.70;1.27;;;;;;;18.27;100.00;98594.44;4366781;32;20130;-71
2022/06/22 08:42:03;;;;;;;2.87;1.25;;;;;;;18.17;100.00;98554.59;4387951;32;20391;-73
2022/06/22 08:45:18;;;;;;;1.33;1.15;;;;;;;18.36;100.00;98587.09;4397554;32;20085;-71
2022/06/22 08:47:44;;;;;;;2.62;1.25;;;;;;;18.41;100.00;98600.63;4352159;32;20098;-70
2022/06/22 08:50:45;;;;;;;2.22;1.33;;;;;;;18.15;100.00;98574.00;4399442;32;20059;-71
2022/06/22 08:53:20;;;;;;;1.52;0.90;;;;;;;18.56;100.00;98604.06;4389765;32;20154;-71
2022/06/22 08:55:54;;;;;;;0.70;0.70;;;;;;;18.61;100.00;98595.75;4398747;32;20058;-70
2022/06/22 08:58:43;;;;;;;8.77;1.02;;;;;;;18.75;100.00;98599.19;4400013;32;20089;-70
2022/06/22 09:01:23;;;;;;;8.23;1.15;;;;;;;18.79;100.00;98602.88;4397029;32;20282;-71
2022/06/22 09:04:07;;;;;;;2.80;0.95;;;;;;;18.90;100.00;98591.72;4400257;32;20438;-70
2022/06/22 09:07:19;;;;;;;3.53;1.00;;;;;;;19.02;100.00;98600.13;4384143;32;20381;-70
2022/06/22 09:10:14;;;;;;;1.65;0.95;;;;;;;19.11;100.00;98603.66;4378896;32;20038;-71
2022/06/22 09:13:10;;;;;;;3.25;1.40;;;;;;;19.23;100.00;98611.25;4396266;32;20392;-71
2022/06/22 09:15:45;;;;;;;3.10;1.83;;;;;;;19.30;100.00;98605.31;4399860;32;20050;-69
2022/06/22 09:18:33;;;;;;;0.90;0.85;;;;;;;19.11;96.33;98598.19;4400641;32;20438;-69
2022/06/22 09:21:17;;;;;;;2.28;1.70;;;;;;;19.14;90.10;98592.09;4400239;32;20862;-70
2022/06/22 09:23:50;;;;;;;1.50;1.15;;;;;;;19.01;94.64;98563.03;4402562;32;20060;-70
2022/06/22 09:26:33;;;;;;;2.15;1.05;;;;;;;19.18;95.00;98604.00;4395062;32;20047;-70
2022/06/22 09:29:06;;;;;;;0.95;0.95;;;;;;;19.20;96.44;98601.75;4398024;32;20046;-71
2022/06/22 09:32:20;;;;;;;4.65;0.95;;;;;;;19.46;98.86;98603.72;4400573;32;20116;-69
2022/06/22 09:35:01;;;;;;;2.58;1.02;;;;;;;19.21;99.25;98559.72;4380984;32;20444;-69
2022/06/22 09:37:34;;;;;;;3.33;1.23;;;;;;;19.48;100.00;98609.69;4406949;32;20062;-68
2022/06/22 09:40:21;;;;;;;7.25;1.20;;;;;;;19.42;97.17;98570.03;4415219;32;20090;-70
2022/06/22 09:43:05;;;;;;;1.15;1.15;;;;;;;19.57;95.15;98610.50;4410098;32;20042;-72
2022/06/22 09:46:08;;;;;;;2.35;0.80;;;;;;;19.46;96.84;98592.81;4412081;32;20111;-71
2022/06/22 09:48:49;;;;;;;1.90;0.90;;;;;;;19.44;94.03;98589.59;4398660;32;20086;-71
2022/06/22 09:51:24;;;;;;;6.25;1.12;;;;;;;19.42;97.91;98559.09;4413260;32;20138;-70
2022/06/22 09:53:55;;;;;;;3.50;1.30;;;;;;;19.68;97.79;98582.87;4410353;32;20096;-72
2022/06/22 09:56:40;;;;;;;;;;;;;;;19.75;100.00;98588.66;4413676;32;20166;-70
2022/06/22 09:59:31;;;;;;;2.42;1.33;;;;;;;19.85;100.00;98593.84;4411323;32;20001;-68
2022/06/22 10:02:16;;;;;;;1.30;1.05;;;;;;;20.01;95.37;98605.09;4417201;32;20089;-70
2022/06/22 10:04:48;;;;;;;5.12;1.15;;;;;;;19.92;88.69;98599.63;4408199;32;20392;-70
2022/06/22 10:07:24;;;;;;;1.05;1.05;;;;;;;19.68;90.17;98605.53;4413205;32;20077;-71
2022/06/22 10:10:14;;;;;;;1.83;1.10;;;;;;;19.78;89.33;98604.44;4413413;32;20054;-70
2022/06/22 10:12:58;;;;;;;3.70;1.27;;;;;;;19.79;96.80;98589.66;4407533;32;20064;-71
2022/06/22 10:15:40;;;;;;;6.00;1.10;;;;;;;19.79;100.00;98589.66;4406079;32;20400;-70
2022/06/22 10:18:16;;;;;;;3.42;1.27;;;;;;;19.76;98.59;98590.31;4410524;32;20056;-72
2022/06/22 10:20:57;;;;;;;1.17;1.10;;;;;;;19.98;97.57;98592.06;4415433;32;20062;-71
2022/06/22 10:23:38;;;;;;;2.85;1.23;;;;;;;20.00;96.16;98594.47;4404502;32;20383;-71
2022/06/22 10:26:17;;;;;;;6.22;2.10;;;;;;;20.19;92.10;98614.06;4415796;32;20062;-69
2022/06/22 10:29:08;;;;;;;6.20;1.12;;;;;;;20.37;92.66;98605.84;4416248;32;20034;-69
2022/06/22 10:32:01;;;;;;;2.37;1.00;;;;;;;20.41;94.23;98601.34;4417460;32;20050;-70
2022/06/22 10:34:53;;;;;;;1.40;1.40;;;;;;;20.35;90.73;98595.22;4417793;32;20196;-70
2022/06/22 10:37:34;;;;;;;1.25;0.90;;;;;;;20.30;100.00;98609.06;4416803;32;20055;-69
2022/06/22 10:40:09;;;;;;;3.80;1.40;;;;;;;20.36;88.87;98565.94;4402802;32;20034;-69
2022/06/22 10:46:06;;;;;;;3.22;1.55;;;;;;;20.58;97.16;98593.09;4414929;32;20420;-70
2022/06/22 10:48:54;;;;;;;1.20;1.20;;;;;;;20.72;89.83;98592.09;4416185;32;20050;-70
2022/06/22 10:51:58;;;;;;;6.50;1.20;;;;;;;20.66;89.48;98573.13;4414849;32;20372;-69
2022/06/22 10:54:57;;;;;;;1.87;1.10;;;;;;;21.34;91.32;98607.09;4419483;32;20089;-70
2022/06/22 10:57:59;;;;;;;4.37;1.27;;;;;;;21.55;88.79;98607.13;4425440;32;20112;-70
2022/06/22 11:00:59;;;;;;;2.10;1.20;;;;;;;21.50;85.22;98599.91;4428902;32;20098;-70
2022/06/22 11:03:47;;;;;;;1.40;1.30;;;;;;;21.76;78.67;98607.97;4401392;32;20466;-70
2022/06/22 11:06:22;;;;;;;6.07;1.60;;;;;;;22.30;79.87;98592.66;4419929;32;20050;-69
2022/06/22 11:09:06;;;;;;;1.23;1.23;;;;;;;22.78;80.09;98596.63;4432023;32;20072;-70
2022/06/22 11:12:00;;;;;;;1.48;1.30;;;;;;;23.39;80.53;98589.56;4416060;32;20103;-71
2022/06/22 11:14:54;;;;;;;2.97;1.37;;;;;;;23.51;64.33;98597.00;4415845;32;20368;-70
2022/06/22 11:17:35;;;;;;;1.37;1.17;;;;;;;23.60;63.59;98591.34;4415131;32;20432;-70
2022/06/22 11:20:38;;;;;;;1.25;1.23;;;;;;;23.54;64.46;98552.34;4413611;32;20450;-72
2022/06/22 11:23:11;;;;;;;2.85;1.30;;;;;;;24.19;66.26;98596.22;4406160;32;20041;-68
2022/06/22 11:32:20;;;;;;;1.08;1.08;;;;;;;24.01;63.28;98605.91;4416501;32;20360;-70
2022/06/22 11:35:26;;;;;;;1.62;1.52;;;;;;;24.06;61.89;98608.41;4415600;32;20078;-71
2022/06/22 11:37:51;;;;;;;1.27;1.00;;;;;;;24.51;64.29;98595.47;4388520;32;20142;-70
2022/06/22 11:40:47;;;;;;;5.37;1.30;;;;;;;23.85;59.05;98570.91;4404052;32;20487;-70
2022/06/22 11:43:45;;;;;;;1.48;1.37;;;;;;;23.46;61.97;98570.56;4415327;32;20070;-71
2022/06/22 11:46:24;;;;;;;7.47;1.50;;;;;;;24.53;64.14;98587.69;4416093;32;20139;-69
2022/06/22 11:48:54;;;;;;;2.03;1.17;;;;;;;24.01;57.86;98594.91;4413733;32;20376;-72
2022/06/22 11:51:37;;;;;;;1.53;1.53;;;;;;;23.67;63.91;98586.06;4415364;32;20058;-70
2022/06/22 11:54:19;;;;;;;3.22;1.27;;;;;;;24.21;58.48;98587.62;4416690;32;20440;-70
2022/06/22 11:57:00;;;;;;;1.33;1.20;;;;;;;24.12;50.33;98607.00;4416196;32;20361;-70
2022/06/22 12:00:00;;;;;;;1.60;1.48;;;;;;;24.29;54.79;98603.97;4416335;32;20380;-71
2022/06/22 12:02:48;;;;;;;1.85;1.12;;;;;;;24.09;48.25;98615.97;4414546;32;20047;-70
2022/06/22 12:05:14;;;;;;;6.03;1.30;;;;;;;24.34;49.31;98602.12;4425705;32;20058;-71
2022/06/22 12:08:04;;;;;;;4.37;1.30;;;;;;;24.81;50.26;98598.63;4413443;32;20710;-70
2022/06/22 12:10:45;;;;;;;5.00;1.75;;;;;;;25.24;55.76;98594.16;4414139;32;20086;-70
2022/06/22 12:13:11;;;;;;;3.80;1.70;;;;;;;25.31;49.66;98575.06;4413479;32;20131;-70
2022/06/22 12:15:54;;;;;;;7.62;1.90;;;;;;;25.41;52.68;98575.66;4416447;32;20058;-70
2022/06/22 12:18:43;;;;;;;1.40;1.30;;;;;;;25.24;47.26;98620.91;4421722;32;20091;-70
2022/06/22 12:21:47;;;;;;;1.50;1.40;;;;;;;25.52;47.92;98605.03;4419265;32;20553;-68
2022/06/22 12:24:21;;;;;;;2.10;1.67;;;;;;;25.67;49.07;98600.66;4417526;32;20078;-69
2022/06/22 12:27:06;;;;;;;3.05;1.42;;;;;;;25.46;51.53;98561.59;4413717;32;20407;-69
2022/06/22 12:29:47;;;;;;;8.65;1.35;;;;;;;25.30;51.32;98548.66;4415031;32;20079;-69
2022/06/22 12:32:26;;;;;;;1.87;1.73;;;;;;;23.68;63.84;98550.00;4415773;32;20058;-69
2022/06/22 12:35:00;;;;;;;7.22;1.95;;;;;;;24.25;64.16;98578.31;4416171;32;20176;-69
2022/06/22 12:37:30;;;;;;;1.55;1.42;;;;;;;24.30;64.96;98583.56;4413301;32;20064;-71
2022/06/22 12:40:03;;;;;;;3.60;1.30;;;;;;;24.90;58.01;98602.00;4414013;32;20044;-70
2022/06/22 12:42:32;;;;;;;4.45;1.62;;;;;;;25.04;56.57;98564.97;4412361;32;20064;-68
2022/06/22 12:45:30;;;;;;;1.65;1.55;;;;;;;24.95;56.55;98593.47;4415156;32;20060;-70